sensor_id;sensor_type;location;lat;lon;timestamp;P1;durP1;ratioP1;P2;durP2;ratioP2
7398;SDS011;3740;50.700;7.184;2023-12-22T00:01:07;8.90;;;3.17;;
7398;SDS011;3740;50.700;7.184;2023-12-22T00:03:33;8.83;;;3.83;;
7398;SDS011;3740;50.700;7.184;2023-12-22T00:05:59;7.97;;;3.30;;
7398;SDS011;3740;50.700;7.184;2023-12-22T00:08:24;7.23;;;3.37;;
7398;SDS011;3740;50.700;7.184;2023-12-22T00:10:50;8.90;;;3.63;;
7398;SDS011;3740;50.700;7.184;2023-12-22T00:13:15;6.10;;;3.27;;
7398;SDS011;3740;50.700;7.184;2023-12-22T00:15:41;9.63;;;3.00;;
7398;SDS011;3740;50.700;7.184;2023-12-22T00:18:08;6.53;;;2.83;;
7398;SDS011;3740;50.700;7.184;2023-12-22T00:20:33;7.10;;;3.07;;
7398;SDS011;3740;50.700;7.184;2023-12-22T00:22:59;6.63;;;2.20;;
7398;SDS011;3740;50.700;7.184;2023-12-22T00:25:25;3.13;;;1.30;;
7398;SDS011;3740;50.700;7.184;2023-12-22T00:27:51;2.83;;;1.60;;
7398;SDS011;3740;50.700;7.184;2023-12-22T00:30:17;4.67;;;1.57;;
7398;SDS011;3740;50.700;7.184;2023-12-22T00:32:42;5.20;;;1.60;;
7398;SDS011;3740;50.700;7.184;2023-12-22T00:35:08;2.53;;;1.57;;
7398;SDS011;3740;50.700;7.184;2023-12-22T00:37:34;4.60;;;1.67;;
7398;SDS011;3740;50.700;7.184;2023-12-22T00:39:59;2.60;;;1.50;;
7398;SDS011;3740;50.700;7.184;2023-12-22T00:42:25;3.07;;;1.80;;
7398;SDS011;3740;50.700;7.184;2023-12-22T00:44:51;2.87;;;1.77;;
7398;SDS011;3740;50.700;7.184;2023-12-22T00:47:17;3.80;;;2.03;;
7398;SDS011;3740;50.700;7.184;2023-12-22T00:49:42;4.30;;;2.40;;
7398;SDS011;3740;50.700;7.184;2023-12-22T00:52:08;4.60;;;2.07;;
7398;SDS011;3740;50.700;7.184;2023-12-22T00:54:33;3.17;;;2.00;;
7398;SDS011;3740;50.700;7.184;2023-12-22T00:56:59;3.67;;;2.00;;
7398;SDS011;3740;50.700;7.184;2023-12-22T00:59:24;4.80;;;2.20;;
7398;SDS011;3740;50.700;7.184;2023-12-22T01:01:50;3.17;;;2.30;;
7398;SDS011;3740;50.700;7.184;2023-12-22T01:04:16;4.97;;;2.23;;
7398;SDS011;3740;50.700;7.184;2023-12-22T01:06:41;5.17;;;2.50;;
7398;SDS011;3740;50.700;7.184;2023-12-22T01:09:07;4.60;;;2.33;;
7398;SDS011;3740;50.700;7.184;2023-12-22T01:11:32;5.07;;;2.30;;
7398;SDS011;3740;50.700;7.184;2023-12-22T01:13:58;5.10;;;2.00;;
7398;SDS011;3740;50.700;7.184;2023-12-22T01:16:23;4.90;;;2.47;;
7398;SDS011;3740;50.700;7.184;2023-12-22T01:18:49;4.73;;;2.00;;
7398;SDS011;3740;50.700;7.184;2023-12-22T01:21:15;4.40;;;2.20;;
7398;SDS011;3740;50.700;7.184;2023-12-22T01:23:41;5.53;;;2.47;;
7398;SDS011;3740;50.700;7.184;2023-12-22T01:26:07;6.17;;;2.33;;
7398;SDS011;3740;50.700;7.184;2023-12-22T01:28:33;6.63;;;3.00;;
7398;SDS011;3740;50.700;7.184;2023-12-22T01:30:59;5.13;;;2.77;;
7398;SDS011;3740;50.700;7.184;2023-12-22T01:33:25;5.00;;;2.70;;
7398;SDS011;3740;50.700;7.184;2023-12-22T01:35:51;7.50;;;3.00;;
7398;SDS011;3740;50.700;7.184;2023-12-22T01:38:17;10.43;;;3.40;;
7398;SDS011;3740;50.700;7.184;2023-12-22T01:40:42;7.77;;;3.30;;
7398;SDS011;3740;50.700;7.184;2023-12-22T01:43:08;6.00;;;3.03;;
7398;SDS011;3740;50.700;7.184;2023-12-22T01:45:34;6.97;;;3.10;;
7398;SDS011;3740;50.700;7.184;2023-12-22T01:47:59;9.63;;;3.30;;
7398;SDS011;3740;50.700;7.184;2023-12-22T01:50:25;10.50;;;3.03;;
7398;SDS011;3740;50.700;7.184;2023-12-22T01:52:51;7.37;;;2.80;;
7398;SDS011;3740;50.700;7.184;2023-12-22T01:55:17;7.37;;;3.03;;
7398;SDS011;3740;50.700;7.184;2023-12-22T01:57:43;11.03;;;2.90;;
7398;SDS011;3740;50.700;7.184;2023-12-22T02:00:10;7.63;;;3.10;;
7398;SDS011;3740;50.700;7.184;2023-12-22T02:02:36;8.47;;;3.33;;
7398;SDS011;3740;50.700;7.184;2023-12-22T02:05:04;8.83;;;3.27;;
7398;SDS011;3740;50.700;7.184;2023-12-22T02:07:30;11.43;;;3.73;;
7398;SDS011;3740;50.700;7.184;2023-12-22T02:09:55;9.87;;;3.33;;
7398;SDS011;3740;50.700;7.184;2023-12-22T02:12:21;10.30;;;3.13;;
7398;SDS011;3740;50.700;7.184;2023-12-22T02:14:47;9.20;;;3.63;;
7398;SDS011;3740;50.700;7.184;2023-12-22T02:20:17;6.60;;;2.87;;
7398;SDS011;3740;50.700;7.184;2023-12-22T02:22:43;8.30;;;2.80;;
7398;SDS011;3740;50.700;7.184;2023-12-22T02:25:09;5.37;;;2.50;;
7398;SDS011;3740;50.700;7.184;2023-12-22T02:27:35;6.30;;;2.53;;
7398;SDS011;3740;50.700;7.184;2023-12-22T02:30:06;8.90;;;3.00;;
7398;SDS011;3740;50.700;7.184;2023-12-22T02:32:50;9.37;;;3.03;;
7398;SDS011;3740;50.700;7.184;2023-12-22T02:35:20;8.63;;;3.10;;
7398;SDS011;3740;50.700;7.184;2023-12-22T02:37:48;8.13;;;3.20;;
7398;SDS011;3740;50.700;7.184;2023-12-22T02:40:14;8.13;;;3.30;;
7398;SDS011;3740;50.700;7.184;2023-12-22T02:42:40;8.63;;;2.90;;
7398;SDS011;3740;50.700;7.184;2023-12-22T02:45:12;9.73;;;3.50;;
7398;SDS011;3740;50.700;7.184;2023-12-22T02:47:39;8.73;;;3.10;;
7398;SDS011;3740;50.700;7.184;2023-12-22T02:50:05;7.10;;;3.00;;
7398;SDS011;3740;50.700;7.184;2023-12-22T02:52:31;9.33;;;3.20;;
7398;SDS011;3740;50.700;7.184;2023-12-22T02:54:57;8.77;;;3.63;;
7398;SDS011;3740;50.700;7.184;2023-12-22T02:57:23;9.67;;;4.10;;
7398;SDS011;3740;50.700;7.184;2023-12-22T02:59:48;11.00;;;3.67;;
7398;SDS011;3740;50.700;7.184;2023-12-22T03:02:14;10.00;;;3.50;;
7398;SDS011;3740;50.700;7.184;2023-12-22T03:04:39;9.03;;;3.20;;
7398;SDS011;3740;50.700;7.184;2023-12-22T03:07:05;9.50;;;3.77;;
7398;SDS011;3740;50.700;7.184;2023-12-22T03:09:31;12.20;;;4.00;;
7398;SDS011;3740;50.700;7.184;2023-12-22T03:12:00;8.37;;;3.53;;
7398;SDS011;3740;50.700;7.184;2023-12-22T03:14:29;11.70;;;3.97;;
7398;SDS011;3740;50.700;7.184;2023-12-22T03:16:55;10.30;;;4.50;;
7398;SDS011;3740;50.700;7.184;2023-12-22T03:19:21;11.93;;;4.13;;
7398;SDS011;3740;50.700;7.184;2023-12-22T03:21:49;13.00;;;4.37;;
7398;SDS011;3740;50.700;7.184;2023-12-22T03:24:15;14.97;;;4.80;;
7398;SDS011;3740;50.700;7.184;2023-12-22T03:26:41;13.33;;;4.43;;
7398;SDS011;3740;50.700;7.184;2023-12-22T03:29:06;11.07;;;4.43;;
7398;SDS011;3740;50.700;7.184;2023-12-22T03:31:32;15.13;;;4.33;;
7398;SDS011;3740;50.700;7.184;2023-12-22T03:33:57;11.67;;;4.10;;
7398;SDS011;3740;50.700;7.184;2023-12-22T03:36:23;10.63;;;4.20;;
7398;SDS011;3740;50.700;7.184;2023-12-22T03:38:48;16.17;;;4.70;;
7398;SDS011;3740;50.700;7.184;2023-12-22T03:41:14;15.60;;;4.50;;
7398;SDS011;3740;50.700;7.184;2023-12-22T03:43:39;12.13;;;4.37;;
7398;SDS011;3740;50.700;7.184;2023-12-22T03:46:05;14.97;;;4.90;;
7398;SDS011;3740;50.700;7.184;2023-12-22T03:48:30;13.93;;;4.23;;
7398;SDS011;3740;50.700;7.184;2023-12-22T03:50:56;12.43;;;4.33;;
7398;SDS011;3740;50.700;7.184;2023-12-22T03:53:21;12.43;;;4.07;;
7398;SDS011;3740;50.700;7.184;2023-12-22T03:55:47;15.47;;;5.30;;
7398;SDS011;3740;50.700;7.184;2023-12-22T03:58:12;13.93;;;4.63;;
7398;SDS011;3740;50.700;7.184;2023-12-22T04:00:38;11.43;;;4.67;;
7398;SDS011;3740;50.700;7.184;2023-12-22T04:03:04;14.20;;;4.40;;
7398;SDS011;3740;50.700;7.184;2023-12-22T04:05:29;11.77;;;4.80;;
7398;SDS011;3740;50.700;7.184;2023-12-22T04:07:55;12.53;;;3.97;;
7398;SDS011;3740;50.700;7.184;2023-12-22T04:10:20;11.90;;;4.40;;
7398;SDS011;3740;50.700;7.184;2023-12-22T04:12:46;13.50;;;4.43;;
7398;SDS011;3740;50.700;7.184;2023-12-22T04:15:11;13.90;;;4.20;;
7398;SDS011;3740;50.700;7.184;2023-12-22T04:17:38;10.97;;;4.07;;
7398;SDS011;3740;50.700;7.184;2023-12-22T04:20:04;10.40;;;4.17;;
7398;SDS011;3740;50.700;7.184;2023-12-22T04:22:32;9.53;;;3.57;;
7398;SDS011;3740;50.700;7.184;2023-12-22T04:24:58;7.43;;;3.40;;
7398;SDS011;3740;50.700;7.184;2023-12-22T04:27:23;7.63;;;3.20;;
7398;SDS011;3740;50.700;7.184;2023-12-22T04:29:49;12.07;;;3.90;;
7398;SDS011;3740;50.700;7.184;2023-12-22T04:32:14;8.13;;;3.37;;
7398;SDS011;3740;50.700;7.184;2023-12-22T04:34:40;8.53;;;3.33;;
7398;SDS011;3740;50.700;7.184;2023-12-22T04:37:06;7.33;;;3.57;;
7398;SDS011;3740;50.700;7.184;2023-12-22T04:39:31;10.37;;;3.27;;
7398;SDS011;3740;50.700;7.184;2023-12-22T04:41:57;7.93;;;2.83;;
7398;SDS011;3740;50.700;7.184;2023-12-22T04:44:23;11.03;;;3.30;;
7398;SDS011;3740;50.700;7.184;2023-12-22T04:46:48;11.00;;;3.60;;
7398;SDS011;3740;50.700;7.184;2023-12-22T04:49:14;8.97;;;3.60;;
7398;SDS011;3740;50.700;7.184;2023-12-22T04:51:40;9.67;;;3.60;;
7398;SDS011;3740;50.700;7.184;2023-12-22T04:54:05;11.70;;;3.63;;
7398;SDS011;3740;50.700;7.184;2023-12-22T04:56:31;10.70;;;3.90;;
7398;SDS011;3740;50.700;7.184;2023-12-22T04:58:57;8.30;;;3.87;;
7398;SDS011;3740;50.700;7.184;2023-12-22T05:01:22;7.97;;;3.10;;
7398;SDS011;3740;50.700;7.184;2023-12-22T05:03:48;7.83;;;3.47;;
7398;SDS011;3740;50.700;7.184;2023-12-22T05:06:14;7.77;;;3.43;;
7398;SDS011;3740;50.700;7.184;2023-12-22T05:08:39;9.47;;;3.93;;
7398;SDS011;3740;50.700;7.184;2023-12-22T05:11:05;12.17;;;4.17;;
7398;SDS011;3740;50.700;7.184;2023-12-22T05:13:31;11.23;;;3.93;;
7398;SDS011;3740;50.700;7.184;2023-12-22T05:15:57;9.83;;;4.57;;
7398;SDS011;3740;50.700;7.184;2023-12-22T05:18:23;11.40;;;4.10;;
7398;SDS011;3740;50.700;7.184;2023-12-22T05:20:49;12.57;;;4.53;;
7398;SDS011;3740;50.700;7.184;2023-12-22T05:23:15;9.37;;;3.77;;
7398;SDS011;3740;50.700;7.184;2023-12-22T05:25:41;13.33;;;4.50;;
7398;SDS011;3740;50.700;7.184;2023-12-22T05:28:06;11.63;;;4.03;;
7398;SDS011;3740;50.700;7.184;2023-12-22T05:30:32;10.47;;;4.07;;
7398;SDS011;3740;50.700;7.184;2023-12-22T05:32:57;8.40;;;3.97;;
7398;SDS011;3740;50.700;7.184;2023-12-22T05:35:23;10.53;;;4.10;;
7398;SDS011;3740;50.700;7.184;2023-12-22T05:37:48;12.27;;;4.13;;
7398;SDS011;3740;50.700;7.184;2023-12-22T05:40:14;11.97;;;4.43;;
7398;SDS011;3740;50.700;7.184;2023-12-22T05:42:40;10.13;;;4.40;;
7398;SDS011;3740;50.700;7.184;2023-12-22T05:45:05;10.90;;;4.33;;
7398;SDS011;3740;50.700;7.184;2023-12-22T05:47:32;11.77;;;4.30;;
7398;SDS011;3740;50.700;7.184;2023-12-22T05:49:57;10.00;;;3.87;;
7398;SDS011;3740;50.700;7.184;2023-12-22T05:52:23;13.53;;;4.37;;
7398;SDS011;3740;50.700;7.184;2023-12-22T05:54:49;14.87;;;5.00;;
7398;SDS011;3740;50.700;7.184;2023-12-22T05:57:14;11.50;;;4.50;;
7398;SDS011;3740;50.700;7.184;2023-12-22T05:59:40;15.00;;;4.53;;
7398;SDS011;3740;50.700;7.184;2023-12-22T06:02:05;11.13;;;4.33;;
7398;SDS011;3740;50.700;7.184;2023-12-22T06:04:31;9.50;;;4.00;;
7398;SDS011;3740;50.700;7.184;2023-12-22T06:06:56;9.73;;;4.20;;
7398;SDS011;3740;50.700;7.184;2023-12-22T06:09:22;11.10;;;4.30;;
7398;SDS011;3740;50.700;7.184;2023-12-22T06:11:48;10.37;;;4.20;;
7398;SDS011;3740;50.700;7.184;2023-12-22T06:14:14;10.70;;;4.07;;
7398;SDS011;3740;50.700;7.184;2023-12-22T06:16:39;13.90;;;4.67;;
7398;SDS011;3740;50.700;7.184;2023-12-22T06:19:05;10.17;;;4.23;;
7398;SDS011;3740;50.700;7.184;2023-12-22T06:21:31;10.43;;;4.13;;
7398;SDS011;3740;50.700;7.184;2023-12-22T06:23:56;12.83;;;4.47;;
7398;SDS011;3740;50.700;7.184;2023-12-22T06:26:22;12.07;;;4.37;;
7398;SDS011;3740;50.700;7.184;2023-12-22T06:28:48;11.00;;;4.23;;
7398;SDS011;3740;50.700;7.184;2023-12-22T06:31:18;15.60;;;5.37;;
7398;SDS011;3740;50.700;7.184;2023-12-22T06:33:45;13.00;;;4.23;;
7398;SDS011;3740;50.700;7.184;2023-12-22T06:36:20;12.63;;;4.17;;
7398;SDS011;3740;50.700;7.184;2023-12-22T06:38:50;11.53;;;4.37;;
7398;SDS011;3740;50.700;7.184;2023-12-22T06:41:24;11.03;;;4.37;;
7398;SDS011;3740;50.700;7.184;2023-12-22T06:43:54;13.37;;;4.73;;
7398;SDS011;3740;50.700;7.184;2023-12-22T06:46:21;10.37;;;4.23;;
7398;SDS011;3740;50.700;7.184;2023-12-22T06:48:47;10.60;;;4.03;;
7398;SDS011;3740;50.700;7.184;2023-12-22T06:51:21;10.13;;;4.13;;
7398;SDS011;3740;50.700;7.184;2023-12-22T06:53:48;12.30;;;4.30;;
7398;SDS011;3740;50.700;7.184;2023-12-22T06:56:24;11.53;;;4.30;;
7398;SDS011;3740;50.700;7.184;2023-12-22T06:58:51;12.33;;;4.73;;
7398;SDS011;3740;50.700;7.184;2023-12-22T07:01:18;9.03;;;3.60;;
7398;SDS011;3740;50.700;7.184;2023-12-22T07:03:48;11.67;;;4.10;;
7398;SDS011;3740;50.700;7.184;2023-12-22T07:06:14;9.87;;;4.10;;
7398;SDS011;3740;50.700;7.184;2023-12-22T07:08:43;9.33;;;3.73;;
7398;SDS011;3740;50.700;7.184;2023-12-22T07:11:10;6.20;;;3.27;;
7398;SDS011;3740;50.700;7.184;2023-12-22T07:13:36;6.80;;;3.03;;
7398;SDS011;3740;50.700;7.184;2023-12-22T07:16:02;8.80;;;3.40;;
7398;SDS011;3740;50.700;7.184;2023-12-22T07:18:28;7.53;;;3.07;;
7398;SDS011;3740;50.700;7.184;2023-12-22T07:20:57;6.63;;;3.90;;
7398;SDS011;3740;50.700;7.184;2023-12-22T07:23:23;8.47;;;4.33;;
7398;SDS011;3740;50.700;7.184;2023-12-22T07:25:49;9.30;;;3.73;;
7398;SDS011;3740;50.700;7.184;2023-12-22T07:28:14;6.53;;;3.80;;
7398;SDS011;3740;50.700;7.184;2023-12-22T07:30:40;8.47;;;3.33;;
7398;SDS011;3740;50.700;7.184;2023-12-22T07:33:06;8.80;;;3.70;;
7398;SDS011;3740;50.700;7.184;2023-12-22T07:35:32;9.87;;;3.13;;
7398;SDS011;3740;50.700;7.184;2023-12-22T07:37:57;5.93;;;2.73;;
7398;SDS011;3740;50.700;7.184;2023-12-22T07:40:23;7.53;;;3.20;;
7398;SDS011;3740;50.700;7.184;2023-12-22T07:42:49;9.80;;;3.40;;
7398;SDS011;3740;50.700;7.184;2023-12-22T07:45:15;6.70;;;2.80;;
7398;SDS011;3740;50.700;7.184;2023-12-22T07:47:41;9.27;;;3.53;;
7398;SDS011;3740;50.700;7.184;2023-12-22T07:50:07;7.63;;;2.80;;
7398;SDS011;3740;50.700;7.184;2023-12-22T07:52:35;9.07;;;3.40;;
7398;SDS011;3740;50.700;7.184;2023-12-22T07:55:07;13.23;;;4.30;;
7398;SDS011;3740;50.700;7.184;2023-12-22T07:57:35;10.87;;;4.27;;
7398;SDS011;3740;50.700;7.184;2023-12-22T08:00:01;9.17;;;4.53;;
7398;SDS011;3740;50.700;7.184;2023-12-22T08:02:28;12.83;;;4.83;;
7398;SDS011;3740;50.700;7.184;2023-12-22T08:04:53;16.90;;;5.80;;
7398;SDS011;3740;50.700;7.184;2023-12-22T08:07:19;16.33;;;5.77;;
7398;SDS011;3740;50.700;7.184;2023-12-22T08:09:45;14.83;;;5.47;;
7398;SDS011;3740;50.700;7.184;2023-12-22T08:12:10;16.63;;;5.63;;
7398;SDS011;3740;50.700;7.184;2023-12-22T08:14:36;18.67;;;6.10;;
7398;SDS011;3740;50.700;7.184;2023-12-22T08:17:01;20.00;;;6.37;;
7398;SDS011;3740;50.700;7.184;2023-12-22T08:19:27;21.60;;;6.53;;
7398;SDS011;3740;50.700;7.184;2023-12-22T08:21:52;15.33;;;6.43;;
7398;SDS011;3740;50.700;7.184;2023-12-22T08:24:19;19.10;;;6.50;;
7398;SDS011;3740;50.700;7.184;2023-12-22T08:26:45;20.00;;;6.60;;
7398;SDS011;3740;50.700;7.184;2023-12-22T08:29:10;18.00;;;6.37;;
7398;SDS011;3740;50.700;7.184;2023-12-22T08:31:36;18.97;;;6.13;;
7398;SDS011;3740;50.700;7.184;2023-12-22T08:34:01;19.57;;;6.43;;
7398;SDS011;3740;50.700;7.184;2023-12-22T08:36:27;18.73;;;5.93;;
7398;SDS011;3740;50.700;7.184;2023-12-22T08:38:52;17.70;;;6.20;;
7398;SDS011;3740;50.700;7.184;2023-12-22T08:41:18;22.93;;;6.47;;
7398;SDS011;3740;50.700;7.184;2023-12-22T08:43:44;17.73;;;6.27;;
7398;SDS011;3740;50.700;7.184;2023-12-22T08:46:09;19.10;;;5.97;;
7398;SDS011;3740;50.700;7.184;2023-12-22T08:48:35;17.27;;;6.03;;
7398;SDS011;3740;50.700;7.184;2023-12-22T08:51:01;14.27;;;5.63;;
7398;SDS011;3740;50.700;7.184;2023-12-22T08:53:26;17.03;;;5.83;;
7398;SDS011;3740;50.700;7.184;2023-12-22T08:55:55;14.67;;;5.57;;
7398;SDS011;3740;50.700;7.184;2023-12-22T08:58:21;14.17;;;5.57;;
7398;SDS011;3740;50.700;7.184;2023-12-22T09:00:47;17.97;;;5.60;;
7398;SDS011;3740;50.700;7.184;2023-12-22T09:03:12;13.87;;;5.80;;
7398;SDS011;3740;50.700;7.184;2023-12-22T09:05:38;16.60;;;5.33;;
7398;SDS011;3740;50.700;7.184;2023-12-22T09:08:04;19.93;;;5.80;;
7398;SDS011;3740;50.700;7.184;2023-12-22T09:10:30;11.63;;;4.63;;
7398;SDS011;3740;50.700;7.184;2023-12-22T09:12:57;13.07;;;5.40;;
7398;SDS011;3740;50.700;7.184;2023-12-22T09:15:23;13.03;;;5.23;;
7398;SDS011;3740;50.700;7.184;2023-12-22T09:17:48;14.83;;;5.27;;
7398;SDS011;3740;50.700;7.184;2023-12-22T09:20:14;11.23;;;5.43;;
7398;SDS011;3740;50.700;7.184;2023-12-22T09:22:40;16.07;;;5.87;;
7398;SDS011;3740;50.700;7.184;2023-12-22T09:25:05;16.03;;;5.70;;
7398;SDS011;3740;50.700;7.184;2023-12-22T09:27:33;15.30;;;5.37;;
7398;SDS011;3740;50.700;7.184;2023-12-22T09:29:59;13.77;;;5.53;;
7398;SDS011;3740;50.700;7.184;2023-12-22T09:32:24;14.23;;;5.50;;
7398;SDS011;3740;50.700;7.184;2023-12-22T09:34:51;15.53;;;6.03;;
7398;SDS011;3740;50.700;7.184;2023-12-22T09:37:17;11.30;;;5.10;;
7398;SDS011;3740;50.700;7.184;2023-12-22T09:39:43;13.77;;;5.57;;
7398;SDS011;3740;50.700;7.184;2023-12-22T09:42:08;14.07;;;5.93;;
7398;SDS011;3740;50.700;7.184;2023-12-22T09:44:34;13.10;;;5.17;;
7398;SDS011;3740;50.700;7.184;2023-12-22T09:47:04;17.50;;;5.83;;
7398;SDS011;3740;50.700;7.184;2023-12-22T09:49:31;16.20;;;5.33;;
7398;SDS011;3740;50.700;7.184;2023-12-22T09:51:58;17.40;;;5.43;;
7398;SDS011;3740;50.700;7.184;2023-12-22T09:54:26;14.77;;;4.77;;
7398;SDS011;3740;50.700;7.184;2023-12-22T09:56:52;10.93;;;4.80;;
7398;SDS011;3740;50.700;7.184;2023-12-22T09:59:18;12.20;;;4.53;;
7398;SDS011;3740;50.700;7.184;2023-12-22T10:01:46;10.23;;;4.47;;
7398;SDS011;3740;50.700;7.184;2023-12-22T10:04:13;9.40;;;4.30;;
7398;SDS011;3740;50.700;7.184;2023-12-22T10:06:39;8.80;;;4.03;;
7398;SDS011;3740;50.700;7.184;2023-12-22T10:09:06;7.97;;;3.20;;
7398;SDS011;3740;50.700;7.184;2023-12-22T10:11:34;11.23;;;4.03;;
7398;SDS011;3740;50.700;7.184;2023-12-22T10:14:01;8.97;;;3.63;;
7398;SDS011;3740;50.700;7.184;2023-12-22T10:16:28;7.77;;;3.37;;
7398;SDS011;3740;50.700;7.184;2023-12-22T10:18:54;6.73;;;3.57;;
7398;SDS011;3740;50.700;7.184;2023-12-22T10:21:20;7.10;;;3.27;;
7398;SDS011;3740;50.700;7.184;2023-12-22T10:23:46;9.07;;;3.40;;
7398;SDS011;3740;50.700;7.184;2023-12-22T10:26:11;5.83;;;3.20;;
7398;SDS011;3740;50.700;7.184;2023-12-22T10:28:37;6.77;;;3.00;;
7398;SDS011;3740;50.700;7.184;2023-12-22T10:31:03;5.27;;;2.70;;
7398;SDS011;3740;50.700;7.184;2023-12-22T10:33:31;5.60;;;3.10;;
7398;SDS011;3740;50.700;7.184;2023-12-22T10:35:58;5.53;;;2.60;;
7398;SDS011;3740;50.700;7.184;2023-12-22T10:38:25;5.37;;;2.30;;
7398;SDS011;3740;50.700;7.184;2023-12-22T10:41:03;7.23;;;2.80;;
7398;SDS011;3740;50.700;7.184;2023-12-22T10:43:30;9.83;;;2.70;;
7398;SDS011;3740;50.700;7.184;2023-12-22T10:45:55;6.03;;;2.40;;
7398;SDS011;3740;50.700;7.184;2023-12-22T10:48:22;3.83;;;2.10;;
7398;SDS011;3740;50.700;7.184;2023-12-22T10:50:48;3.47;;;2.10;;
7398;SDS011;3740;50.700;7.184;2023-12-22T10:53:14;3.40;;;2.03;;
7398;SDS011;3740;50.700;7.184;2023-12-22T10:55:39;5.60;;;2.70;;
7398;SDS011;3740;50.700;7.184;2023-12-22T10:58:05;4.63;;;2.53;;
7398;SDS011;3740;50.700;7.184;2023-12-22T11:00:35;3.33;;;1.93;;
7398;SDS011;3740;50.700;7.184;2023-12-22T11:03:07;4.77;;;2.10;;
7398;SDS011;3740;50.700;7.184;2023-12-22T11:05:34;4.23;;;2.17;;
7398;SDS011;3740;50.700;7.184;2023-12-22T11:08:02;3.73;;;2.03;;
7398;SDS011;3740;50.700;7.184;2023-12-22T11:10:31;4.93;;;2.33;;
7398;SDS011;3740;50.700;7.184;2023-12-22T11:12:59;4.57;;;2.10;;
7398;SDS011;3740;50.700;7.184;2023-12-22T11:15:25;3.67;;;2.00;;
7398;SDS011;3740;50.700;7.184;2023-12-22T11:17:52;3.10;;;1.90;;
7398;SDS011;3740;50.700;7.184;2023-12-22T11:20:20;2.70;;;1.90;;
7398;SDS011;3740;50.700;7.184;2023-12-22T11:22:47;3.80;;;2.20;;
7398;SDS011;3740;50.700;7.184;2023-12-22T11:25:15;3.87;;;2.10;;
7398;SDS011;3740;50.700;7.184;2023-12-22T11:27:43;3.70;;;2.00;;
7398;SDS011;3740;50.700;7.184;2023-12-22T11:30:12;2.67;;;1.80;;
7398;SDS011;3740;50.700;7.184;2023-12-22T11:32:39;4.97;;;2.13;;
7398;SDS011;3740;50.700;7.184;2023-12-22T11:35:06;4.10;;;2.20;;
7398;SDS011;3740;50.700;7.184;2023-12-22T11:37:33;3.20;;;2.20;;
7398;SDS011;3740;50.700;7.184;2023-12-22T11:40:00;2.50;;;2.10;;
7398;SDS011;3740;50.700;7.184;2023-12-22T11:42:28;4.33;;;2.60;;
7398;SDS011;3740;50.700;7.184;2023-12-22T11:44:57;3.00;;;2.00;;
7398;SDS011;3740;50.700;7.184;2023-12-22T11:47:23;2.90;;;2.47;;
7398;SDS011;3740;50.700;7.184;2023-12-22T11:49:49;4.87;;;2.70;;
7398;SDS011;3740;50.700;7.184;2023-12-22T11:52:18;2.80;;;2.10;;
7398;SDS011;3740;50.700;7.184;2023-12-22T11:54:50;4.43;;;2.10;;
7398;SDS011;3740;50.700;7.184;2023-12-22T11:57:29;2.83;;;2.10;;
7398;SDS011;3740;50.700;7.184;2023-12-22T11:59:56;3.07;;;1.90;;
7398;SDS011;3740;50.700;7.184;2023-12-22T12:02:42;2.47;;;1.73;;
7398;SDS011;3740;50.700;7.184;2023-12-22T12:05:18;1.97;;;1.77;;
7398;SDS011;3740;50.700;7.184;2023-12-22T12:07:47;1.93;;;1.70;;
7398;SDS011;3740;50.700;7.184;2023-12-22T12:13:11;2.30;;;1.80;;
7398;SDS011;3740;50.700;7.184;2023-12-22T12:15:40;3.50;;;1.63;;
7398;SDS011;3740;50.700;7.184;2023-12-22T12:18:07;2.37;;;1.63;;
7398;SDS011;3740;50.700;7.184;2023-12-22T12:20:33;1.40;;;1.20;;
7398;SDS011;3740;50.700;7.184;2023-12-22T12:23:02;2.20;;;1.63;;
7398;SDS011;3740;50.700;7.184;2023-12-22T12:25:29;2.03;;;1.47;;
7398;SDS011;3740;50.700;7.184;2023-12-22T12:30:29;2.13;;;1.77;;
7398;SDS011;3740;50.700;7.184;2023-12-22T12:32:55;2.37;;;1.63;;
7398;SDS011;3740;50.700;7.184;2023-12-22T12:35:27;3.33;;;1.43;;
7398;SDS011;3740;50.700;7.184;2023-12-22T12:37:54;3.13;;;1.80;;
7398;SDS011;3740;50.700;7.184;2023-12-22T12:40:20;2.77;;;1.70;;
7398;SDS011;3740;50.700;7.184;2023-12-22T12:42:49;2.73;;;1.70;;
7398;SDS011;3740;50.700;7.184;2023-12-22T12:45:15;3.70;;;1.90;;
7398;SDS011;3740;50.700;7.184;2023-12-22T12:50:26;2.90;;;1.90;;
7398;SDS011;3740;50.700;7.184;2023-12-22T12:52:53;3.13;;;1.70;;
7398;SDS011;3740;50.700;7.184;2023-12-22T12:55:20;6.07;;;2.23;;
7398;SDS011;3740;50.700;7.184;2023-12-22T12:57:50;2.07;;;1.77;;
7398;SDS011;3740;50.700;7.184;2023-12-22T13:00:32;3.87;;;2.40;;
7398;SDS011;3740;50.700;7.184;2023-12-22T13:03:04;3.87;;;2.50;;
7398;SDS011;3740;50.700;7.184;2023-12-22T13:05:31;4.30;;;2.00;;
7398;SDS011;3740;50.700;7.184;2023-12-22T13:08:07;6.30;;;2.30;;
7398;SDS011;3740;50.700;7.184;2023-12-22T13:10:36;4.93;;;2.10;;
7398;SDS011;3740;50.700;7.184;2023-12-22T13:13:02;5.50;;;2.37;;
7398;SDS011;3740;50.700;7.184;2023-12-22T13:15:28;4.40;;;2.27;;
7398;SDS011;3740;50.700;7.184;2023-12-22T13:17:54;3.47;;;2.13;;
7398;SDS011;3740;50.700;7.184;2023-12-22T13:20:20;3.53;;;2.00;;
7398;SDS011;3740;50.700;7.184;2023-12-22T13:22:45;3.33;;;2.30;;
7398;SDS011;3740;50.700;7.184;2023-12-22T13:25:11;5.40;;;2.67;;
7398;SDS011;3740;50.700;7.184;2023-12-22T13:27:46;5.03;;;2.63;;
7398;SDS011;3740;50.700;7.184;2023-12-22T13:32:58;3.83;;;2.10;;
7398;SDS011;3740;50.700;7.184;2023-12-22T13:35:24;4.60;;;3.10;;
7398;SDS011;3740;50.700;7.184;2023-12-22T13:37:51;5.73;;;2.93;;
7398;SDS011;3740;50.700;7.184;2023-12-22T13:40:16;3.07;;;2.30;;
7398;SDS011;3740;50.700;7.184;2023-12-22T13:42:42;4.20;;;2.53;;
7398;SDS011;3740;50.700;7.184;2023-12-22T13:45:11;2.67;;;2.10;;
7398;SDS011;3740;50.700;7.184;2023-12-22T13:47:43;3.90;;;2.10;;
7398;SDS011;3740;50.700;7.184;2023-12-22T13:50:17;5.03;;;2.30;;
7398;SDS011;3740;50.700;7.184;2023-12-22T13:52:43;4.20;;;2.27;;
7398;SDS011;3740;50.700;7.184;2023-12-22T13:55:13;4.97;;;2.40;;
7398;SDS011;3740;50.700;7.184;2023-12-22T13:57:40;3.87;;;2.40;;
7398;SDS011;3740;50.700;7.184;2023-12-22T14:02:49;3.33;;;2.20;;
7398;SDS011;3740;50.700;7.184;2023-12-22T14:05:15;2.50;;;2.17;;
7398;SDS011;3740;50.700;7.184;2023-12-22T14:07:42;5.07;;;2.60;;
7398;SDS011;3740;50.700;7.184;2023-12-22T14:10:08;4.23;;;2.53;;
7398;SDS011;3740;50.700;7.184;2023-12-22T14:12:35;4.37;;;2.50;;
7398;SDS011;3740;50.700;7.184;2023-12-22T14:15:03;5.83;;;2.10;;
7398;SDS011;3740;50.700;7.184;2023-12-22T14:17:32;5.70;;;2.43;;
7398;SDS011;3740;50.700;7.184;2023-12-22T14:19:58;4.67;;;2.10;;
7398;SDS011;3740;50.700;7.184;2023-12-22T14:22:23;3.70;;;2.30;;
7398;SDS011;3740;50.700;7.184;2023-12-22T14:24:49;4.67;;;2.33;;
7398;SDS011;3740;50.700;7.184;2023-12-22T14:27:15;4.23;;;2.20;;
7398;SDS011;3740;50.700;7.184;2023-12-22T14:29:43;3.10;;;2.10;;
7398;SDS011;3740;50.700;7.184;2023-12-22T14:32:09;7.07;;;2.50;;
7398;SDS011;3740;50.700;7.184;2023-12-22T14:34:36;4.50;;;2.27;;
7398;SDS011;3740;50.700;7.184;2023-12-22T14:37:01;6.10;;;2.10;;
7398;SDS011;3740;50.700;7.184;2023-12-22T14:39:27;4.00;;;2.00;;
7398;SDS011;3740;50.700;7.184;2023-12-22T14:41:53;5.47;;;2.30;;
7398;SDS011;3740;50.700;7.184;2023-12-22T14:44:19;3.47;;;2.23;;
7398;SDS011;3740;50.700;7.184;2023-12-22T14:46:45;6.37;;;2.23;;
7398;SDS011;3740;50.700;7.184;2023-12-22T14:49:10;3.60;;;2.20;;
7398;SDS011;3740;50.700;7.184;2023-12-22T14:51:36;5.07;;;2.60;;
7398;SDS011;3740;50.700;7.184;2023-12-22T14:54:03;3.53;;;2.30;;
7398;SDS011;3740;50.700;7.184;2023-12-22T14:56:33;4.43;;;2.30;;
7398;SDS011;3740;50.700;7.184;2023-12-22T14:58:59;4.23;;;2.20;;
7398;SDS011;3740;50.700;7.184;2023-12-22T15:01:25;4.37;;;2.20;;
7398;SDS011;3740;50.700;7.184;2023-12-22T15:03:51;3.57;;;2.47;;
7398;SDS011;3740;50.700;7.184;2023-12-22T15:06:16;2.87;;;2.10;;
7398;SDS011;3740;50.700;7.184;2023-12-22T15:08:42;5.70;;;2.10;;
7398;SDS011;3740;50.700;7.184;2023-12-22T15:11:07;2.90;;;1.97;;
7398;SDS011;3740;50.700;7.184;2023-12-22T15:13:33;3.77;;;1.93;;
7398;SDS011;3740;50.700;7.184;2023-12-22T15:16:04;3.40;;;2.00;;
7398;SDS011;3740;50.700;7.184;2023-12-22T15:18:30;3.67;;;2.20;;
7398;SDS011;3740;50.700;7.184;2023-12-22T15:20:55;3.33;;;2.03;;
7398;SDS011;3740;50.700;7.184;2023-12-22T15:23:21;7.00;;;4.70;;